createdAt,value
2018-09-04T00:01:08.723Z,4.13
2018-09-04T00:03:37.255Z,4.10
2018-09-04T00:06:06.233Z,4.27
2018-09-04T00:08:34.833Z,4.20
2018-09-04T00:11:03.390Z,4.50
2018-09-04T00:13:31.985Z,4.33
2018-09-04T00:16:00.647Z,3.83
2018-09-04T00:18:29.184Z,4.30
2018-09-04T00:20:57.732Z,4.70
2018-09-04T00:23:26.288Z,4.10
2018-09-04T00:25:54.862Z,4.70
2018-09-04T00:28:23.392Z,4.07
2018-09-04T00:30:51.945Z,4.33
2018-09-04T00:33:20.469Z,4.20
2018-09-04T00:35:49.011Z,4.10
2018-09-04T00:38:17.563Z,4.60
2018-09-04T00:40:46.112Z,4.27
2018-09-04T00:43:14.688Z,3.93
2018-09-04T00:45:43.225Z,4.80
2018-09-04T00:48:11.792Z,4.13
2018-09-04T00:50:40.296Z,5.13
2018-09-04T00:53:08.877Z,4.97
2018-09-04T00:55:37.452Z,4.93
2018-09-04T00:58:06.111Z,5.10
2018-09-04T01:00:34.645Z,4.30
2018-09-04T01:03:03.250Z,4.70
2018-09-04T01:05:31.768Z,4.10
2018-09-04T01:08:00.429Z,4.40
2018-09-04T01:10:29.020Z,4.97
2018-09-04T01:12:57.587Z,4.60
2018-09-04T01:15:26.177Z,4.70
2018-09-04T01:17:54.752Z,4.67
2018-09-04T01:20:23.378Z,4.30
2018-09-04T01:22:51.964Z,4.70
2018-09-04T01:25:20.551Z,4.77
2018-09-04T01:27:49.188Z,4.90
2018-09-04T01:30:17.808Z,5.20
2018-09-04T01:32:46.321Z,5.30
2018-09-04T01:35:14.960Z,4.93
2018-09-04T01:37:43.552Z,4.73
2018-09-04T01:40:12.088Z,4.87
2018-09-04T01:42:40.672Z,5.00
2018-09-04T01:45:09.236Z,4.87
2018-09-04T01:47:37.794Z,5.50
2018-09-04T01:50:06.440Z,5.53
2018-09-04T01:52:35.057Z,5.00
2018-09-04T01:55:03.585Z,5.13
2018-09-04T01:57:32.118Z,6.20
2018-09-04T02:00:00.648Z,5.10
2018-09-04T02:02:29.214Z,4.40
2018-09-04T02:04:57.720Z,4.97
2018-09-04T02:07:26.344Z,4.87
2018-09-04T02:09:54.927Z,5.13
2018-09-04T02:12:23.524Z,4.80
2018-09-04T02:14:52.042Z,4.67
2018-09-04T02:17:20.584Z,4.60
2018-09-04T02:19:49.172Z,4.80
2018-09-04T02:22:17.684Z,4.77
2018-09-04T02:24:46.304Z,4.70
2018-09-04T02:27:14.867Z,4.83
2018-09-04T02:29:43.433Z,4.90
2018-09-04T02:32:11.984Z,5.03
2018-09-04T02:34:40.551Z,4.57
2018-09-04T02:37:09.137Z,5.60
2018-09-04T02:39:37.680Z,5.13
2018-09-04T02:42:06.477Z,4.83
2018-09-04T02:44:35.060Z,5.37
2018-09-04T02:47:03.624Z,4.87
2018-09-04T02:49:32.195Z,5.40
2018-09-04T02:52:00.732Z,6.53
2018-09-04T02:54:29.279Z,5.73
2018-09-04T02:56:57.825Z,6.97
2018-09-04T02:59:26.396Z,6.67
2018-09-04T03:01:55.004Z,6.97
2018-09-04T03:04:23.573Z,7.37
2018-09-04T03:06:52.106Z,6.70
2018-09-04T03:09:20.709Z,6.23
2018-09-04T03:11:49.288Z,6.57
2018-09-04T03:14:17.872Z,6.73
2018-09-04T03:16:46.413Z,6.27
2018-09-04T03:19:14.984Z,6.40
2018-09-04T03:21:43.495Z,5.40
2018-09-04T03:24:12.031Z,5.23
2018-09-04T03:26:40.583Z,5.77
2018-09-04T03:29:09.200Z,5.43
2018-09-04T03:31:37.734Z,6.50
2018-09-04T03:34:06.320Z,4.97
2018-09-04T03:36:34.952Z,6.00
2018-09-04T03:39:03.777Z,5.30
2018-09-04T03:41:32.315Z,5.70
2018-09-04T03:44:00.915Z,4.60
2018-09-04T03:46:29.465Z,4.83
2018-09-04T03:48:58.025Z,4.87
2018-09-04T03:51:26.559Z,5.10
2018-09-04T03:53:55.135Z,5.27
2018-09-04T03:56:23.648Z,5.80
2018-09-04T03:58:52.200Z,5.53
2018-09-04T04:01:20.772Z,6.27
2018-09-04T04:03:49.307Z,6.37
2018-09-04T04:06:17.883Z,6.67
2018-09-04T04:08:46.456Z,6.13
2018-09-04T04:11:15.029Z,7.60
2018-09-04T04:13:43.606Z,6.93
2018-09-04T04:16:12.162Z,8.13
2018-09-04T04:18:40.744Z,6.93
2018-09-04T04:21:09.373Z,6.83
2018-09-04T04:23:37.899Z,8.17
2018-09-04T04:26:06.563Z,7.10
2018-09-04T04:28:35.125Z,10.57
2018-09-04T04:31:03.723Z,14.63
2018-09-04T04:33:32.259Z,9.50
2018-09-04T04:36:00.800Z,8.70
2018-09-04T04:38:29.400Z,8.63
2018-09-04T04:40:57.980Z,7.70
2018-09-04T04:43:26.484Z,7.30
2018-09-04T04:45:55.064Z,6.33
2018-09-04T04:48:23.687Z,7.77
2018-09-04T04:50:52.172Z,6.37
2018-09-04T04:53:20.845Z,6.40
2018-09-04T04:55:49.466Z,9.43
2018-09-04T04:58:18.017Z,7.63
2018-09-04T05:00:46.663Z,7.53
2018-09-04T05:03:15.192Z,6.70
2018-09-04T05:05:43.760Z,7.87
2018-09-04T05:08:12.362Z,8.83
2018-09-04T05:10:40.907Z,7.63
2018-09-04T05:13:09.619Z,6.63
2018-09-04T05:15:38.170Z,6.27
2018-09-04T05:18:06.929Z,5.47
2018-09-04T05:20:35.520Z,6.17
2018-09-04T05:23:04.088Z,5.90
2018-09-04T05:25:32.660Z,6.40
2018-09-04T05:28:01.197Z,6.83
2018-09-04T05:30:29.798Z,7.60
2018-09-04T05:33:09.547Z,7.00
2018-09-04T05:35:54.619Z,7.57
2018-09-04T05:38:23.152Z,8.37
2018-09-04T05:40:51.725Z,9.57
2018-09-04T05:43:25.615Z,9.77
2018-09-04T05:45:55.140Z,10.30
2018-09-04T05:48:23.748Z,10.40
2018-09-04T05:50:52.508Z,9.80
2018-09-04T05:53:21.426Z,9.93
2018-09-04T05:55:50.592Z,10.13
2018-09-04T05:58:19.445Z,10.07
2018-09-04T06:00:50.437Z,9.40
2018-09-04T06:03:19.255Z,9.57
2018-09-04T06:05:48.033Z,10.10
2018-09-04T06:08:16.611Z,10.27
2018-09-04T06:10:45.157Z,10.33
2018-09-04T06:13:13.742Z,9.60
2018-09-04T06:15:42.266Z,9.63
2018-09-04T06:18:10.846Z,9.53
2018-09-04T06:20:39.389Z,9.13
2018-09-04T06:23:07.955Z,9.30
2018-09-04T06:25:36.541Z,9.20
2018-09-04T06:28:05.213Z,8.20
2018-09-04T06:30:33.947Z,7.77
2018-09-04T06:33:02.535Z,8.03
2018-09-04T06:35:31.098Z,7.90
2018-09-04T06:37:59.681Z,7.67
2018-09-04T06:40:28.252Z,8.10
2018-09-04T06:42:56.833Z,9.20
2018-09-04T06:45:25.377Z,9.60
2018-09-04T06:47:53.959Z,9.30
2018-09-04T06:50:22.581Z,9.37
2018-09-04T06:52:51.157Z,8.17
2018-09-04T06:55:19.775Z,8.57
2018-09-04T06:57:48.413Z,8.70
2018-09-04T07:00:16.956Z,8.93
2018-09-04T07:02:45.539Z,9.03
2018-09-04T07:05:14.080Z,8.87
2018-09-04T07:07:42.968Z,9.03
2018-09-04T07:10:11.572Z,8.20
2018-09-04T07:12:40.305Z,9.00
2018-09-04T07:15:09.034Z,8.53
2018-09-04T07:17:37.764Z,8.13
2018-09-04T07:20:06.551Z,8.20
2018-09-04T07:22:35.113Z,9.17
2018-09-04T07:25:03.718Z,8.10
2018-09-04T07:27:32.313Z,11.17
2018-09-04T07:30:00.843Z,11.17
2018-09-04T07:32:29.417Z,8.57
2018-09-04T07:34:57.935Z,8.57
2018-09-04T07:37:26.460Z,9.83
2018-09-04T07:39:55.226Z,8.73
2018-09-04T07:42:23.796Z,9.67
2018-09-04T07:44:52.321Z,9.87
2018-09-04T07:47:20.888Z,9.67
2018-09-04T07:49:49.439Z,9.80
2018-09-04T07:52:18.012Z,9.97
2018-09-04T07:54:46.592Z,8.77
2018-09-04T07:57:15.453Z,11.57
2018-09-04T07:59:44.293Z,10.53
2018-09-04T08:02:13.053Z,9.97
2018-09-04T08:04:41.902Z,10.60
2018-09-04T08:07:10.728Z,10.63
2018-09-04T08:09:39.620Z,11.20
2018-09-04T08:12:08.657Z,10.90
2018-09-04T08:14:37.279Z,11.20
2018-09-04T08:17:05.862Z,11.77
2018-09-04T08:19:34.448Z,10.73
2018-09-04T08:22:03.001Z,11.57
2018-09-04T08:24:31.605Z,11.03
2018-09-04T08:27:00.188Z,12.07
2018-09-04T08:29:28.773Z,12.50
2018-09-04T08:31:57.313Z,11.83
2018-09-04T08:34:25.872Z,11.47
2018-09-04T08:36:54.428Z,12.43
2018-09-04T08:39:23.023Z,12.17
2018-09-04T08:41:51.636Z,12.90
2018-09-04T08:44:20.216Z,12.50
2018-09-04T08:46:48.806Z,11.80
2018-09-04T08:49:17.364Z,10.80
2018-09-04T08:51:45.883Z,12.23
2018-09-04T08:54:14.450Z,13.27
2018-09-04T08:56:43.018Z,11.27
2018-09-04T08:59:11.585Z,12.23
2018-09-04T09:01:40.124Z,12.30
2018-09-04T09:04:08.719Z,14.13
2018-09-04T09:06:37.301Z,12.37
2018-09-04T09:09:07.974Z,12.13
2018-09-04T09:11:36.547Z,11.23
2018-09-04T09:14:05.161Z,10.97
2018-09-04T09:16:33.825Z,11.83
2018-09-04T09:19:02.412Z,11.73
2018-09-04T09:21:30.932Z,12.20
2018-09-04T09:23:59.521Z,11.70
2018-09-04T09:26:28.124Z,10.83
2018-09-04T09:28:56.730Z,10.20
2018-09-04T09:31:25.375Z,11.50
2018-09-04T09:33:53.990Z,11.80
2018-09-04T09:36:22.609Z,10.70
2018-09-04T09:38:51.157Z,10.37
2018-09-04T09:41:19.712Z,9.10
2018-09-04T09:43:48.304Z,8.50
2018-09-04T09:46:16.885Z,9.97
2018-09-04T09:48:45.467Z,8.67
2018-09-04T09:51:14.017Z,9.30
2018-09-04T09:53:42.712Z,8.47
2018-09-04T09:56:11.755Z,8.63
2018-09-04T09:58:41.061Z,7.73
2018-09-04T10:01:14.957Z,8.13
2018-09-04T10:03:48.878Z,7.80
2018-09-04T10:06:18.764Z,8.33
2018-09-04T10:08:47.416Z,8.47
2018-09-04T10:11:16.288Z,7.30
2018-09-04T10:13:44.994Z,7.27
2018-09-04T10:16:13.572Z,7.23
2018-09-04T10:18:42.112Z,7.23
2018-09-04T10:21:10.727Z,7.57
2018-09-04T10:23:39.373Z,7.83
2018-09-04T10:26:07.985Z,7.83
2018-09-04T10:28:36.531Z,7.27
2018-09-04T10:31:05.356Z,7.50
2018-09-04T10:33:33.922Z,7.07
2018-09-04T10:36:02.527Z,7.83
2018-09-04T10:38:31.067Z,7.47
2018-09-04T10:41:02.693Z,7.40
2018-09-04T10:43:32.089Z,7.27
2018-09-04T10:46:01.658Z,8.60
2018-09-04T10:48:30.720Z,7.63
2018-09-04T10:50:59.692Z,7.67
2018-09-04T10:53:28.270Z,7.83
2018-09-04T10:55:56.890Z,8.27
2018-09-04T10:58:25.443Z,7.10
2018-09-04T11:00:54.010Z,7.63
2018-09-04T11:03:22.691Z,7.50
2018-09-04T11:05:51.293Z,7.07
2018-09-04T11:08:20.171Z,7.03
2018-09-04T11:10:48.927Z,7.33
2018-09-04T11:13:17.533Z,7.80
2018-09-04T11:15:46.095Z,7.00
2018-09-04T11:18:14.632Z,8.13
2018-09-04T11:20:43.197Z,7.27
2018-09-04T11:23:11.771Z,7.30
2018-09-04T11:25:40.347Z,7.23
2018-09-04T11:28:08.873Z,7.17
2018-09-04T11:30:37.503Z,7.73
2018-09-04T11:33:06.108Z,7.90
2018-09-04T11:35:34.692Z,7.43
2018-09-04T11:38:03.240Z,7.20
2018-09-04T11:40:31.879Z,6.67
2018-09-04T11:43:00.489Z,6.93
2018-09-04T11:45:29.057Z,6.90
2018-09-04T11:47:58.916Z,7.00
2018-09-04T11:50:28.005Z,6.73
2018-09-04T11:52:56.637Z,7.03
2018-09-04T11:55:25.400Z,7.07
2018-09-04T11:57:54.013Z,7.33
2018-09-04T12:00:27.810Z,5.97
2018-09-04T12:02:56.455Z,6.07
2018-09-04T12:05:24.980Z,6.40
2018-09-04T12:07:53.594Z,7.33
2018-09-04T12:10:22.177Z,5.90
2018-09-04T12:12:50.857Z,7.00
2018-09-04T12:15:19.392Z,11.73
2018-09-04T12:17:47.960Z,6.53
2018-09-04T12:20:25.945Z,6.37
2018-09-04T12:22:54.997Z,6.67
2018-09-04T12:25:24.656Z,6.40
2018-09-04T12:27:53.244Z,6.43
2018-09-04T12:30:21.805Z,6.17
2018-09-04T12:32:50.370Z,6.10
2018-09-04T12:35:18.901Z,6.73
2018-09-04T12:37:47.507Z,6.13
2018-09-04T12:40:16.152Z,6.10
2018-09-04T12:42:45.085Z,6.03
2018-09-04T12:45:13.804Z,6.20
2018-09-04T12:47:42.633Z,6.83
2018-09-04T12:50:11.409Z,6.63
2018-09-04T12:52:40.184Z,6.50
2018-09-04T12:55:08.995Z,6.30
2018-09-04T12:57:37.769Z,6.93
2018-09-04T13:00:07.119Z,5.93
2018-09-04T13:02:36.067Z,6.33
2018-09-04T13:05:04.885Z,6.60
2018-09-04T13:07:33.758Z,6.07
2018-09-04T13:10:02.620Z,6.50
2018-09-04T13:12:31.200Z,6.17
2018-09-04T13:14:59.788Z,5.87
2018-09-04T13:17:28.424Z,8.80
2018-09-04T13:19:57.032Z,7.23
2018-09-04T13:22:25.654Z,7.27
2018-09-04T13:24:54.193Z,6.33
2018-09-04T13:27:22.772Z,5.70
2018-09-04T13:29:51.320Z,5.83
2018-09-04T13:32:19.942Z,6.40
2018-09-04T13:34:48.537Z,6.67
2018-09-04T13:37:17.123Z,6.10
2018-09-04T13:39:45.648Z,5.90
2018-09-04T13:42:14.353Z,5.60
2018-09-04T13:44:42.893Z,5.80
2018-09-04T13:47:11.444Z,5.80
2018-09-04T13:49:40.143Z,6.13
2018-09-04T13:52:08.579Z,6.47
2018-09-04T13:54:37.115Z,6.07
2018-09-04T13:57:05.701Z,5.70
2018-09-04T13:59:34.232Z,5.60
2018-09-04T14:02:02.751Z,5.63
2018-09-04T14:04:31.377Z,5.57
2018-09-04T14:06:59.876Z,5.67
2018-09-04T14:09:28.506Z,5.57
2018-09-04T14:11:57.044Z,6.20
2018-09-04T14:14:25.600Z,6.03
2018-09-04T14:16:54.194Z,5.77
2018-09-04T14:19:22.708Z,5.77
2018-09-04T14:21:51.512Z,5.83
2018-09-04T14:24:20.237Z,5.43
2018-09-04T14:26:48.790Z,5.43
2018-09-04T14:29:53.154Z,5.43
2018-09-04T14:31:45.908Z,5.37
2018-09-04T14:34:14.805Z,5.53
2018-09-04T14:36:43.805Z,5.60
2018-09-04T14:39:12.508Z,5.83
2018-09-04T14:41:41.348Z,8.87
2018-09-04T14:44:10.280Z,8.27
2018-09-04T14:46:39.024Z,6.60
2018-09-04T14:49:07.935Z,5.73
2018-09-04T14:51:36.790Z,5.80
2018-09-04T14:54:05.651Z,5.83
2018-09-04T14:56:34.181Z,5.77
2018-09-04T14:59:02.762Z,5.67
2018-09-04T15:01:31.284Z,6.00
2018-09-04T15:03:59.847Z,5.40
2018-09-04T15:06:28.445Z,6.00
2018-09-04T15:08:57.025Z,5.73
2018-09-04T15:11:25.605Z,5.67
2018-09-04T15:13:54.141Z,6.40
2018-09-04T15:16:22.668Z,5.57
2018-09-04T15:18:51.305Z,5.13
2018-09-04T15:21:20.140Z,6.00
2018-09-04T15:23:48.959Z,5.57
2018-09-04T15:26:17.546Z,5.07
2018-09-04T15:28:46.112Z,5.77
2018-09-04T15:31:14.633Z,5.50
2018-09-04T15:33:43.265Z,4.80
2018-09-04T15:36:11.810Z,5.30
2018-09-04T15:38:40.376Z,5.63
2018-09-04T15:41:08.895Z,5.07
2018-09-04T15:43:37.458Z,5.47
2018-09-04T15:46:06.125Z,4.73
2018-09-04T15:48:34.660Z,4.40
2018-09-04T15:51:03.227Z,4.43
2018-09-04T15:53:31.743Z,4.90
2018-09-04T15:56:00.307Z,4.30
2018-09-04T15:58:28.820Z,4.60
2018-09-04T16:00:57.397Z,4.70
2018-09-04T16:03:25.932Z,4.20
2018-09-04T16:05:54.496Z,3.93
2018-09-04T16:08:23.059Z,4.40
2018-09-04T16:10:51.639Z,4.00
2018-09-04T16:13:20.148Z,3.83
2018-09-04T16:15:48.761Z,3.63
2018-09-04T16:18:17.321Z,4.27
2018-09-04T16:20:45.909Z,4.07
2018-09-04T16:23:14.469Z,4.50
2018-09-04T16:25:43.111Z,4.47
2018-09-04T16:28:11.645Z,4.20
2018-09-04T16:30:40.240Z,4.67
2018-09-04T16:33:08.796Z,4.63
2018-09-04T16:35:37.397Z,4.43
2018-09-04T16:38:05.973Z,4.07
2018-09-04T16:40:34.562Z,4.30
2018-09-04T16:43:03.143Z,4.40
2018-09-04T16:45:31.724Z,4.37
2018-09-04T16:48:00.442Z,4.50
2018-09-04T16:50:29.028Z,4.30
2018-09-04T16:52:57.544Z,4.50
2018-09-04T16:55:26.073Z,4.47
2018-09-04T16:57:54.702Z,4.70
2018-09-04T17:00:23.267Z,10.23
2018-09-04T17:03:24.560Z,4.87
2018-09-04T17:05:53.172Z,5.03
2018-09-04T17:08:21.912Z,4.80
2018-09-04T17:10:50.481Z,4.73
2018-09-04T17:13:19.041Z,5.17
2018-09-04T17:15:47.621Z,5.03
2018-09-04T17:18:16.193Z,4.77
2018-09-04T17:20:44.755Z,5.30
2018-09-04T17:23:13.346Z,4.37
2018-09-04T17:25:41.928Z,5.53
2018-09-04T17:28:10.460Z,4.53
2018-09-04T17:30:39.074Z,5.23
2018-09-04T17:33:07.682Z,5.30
2018-09-04T17:35:36.232Z,4.60
2018-09-04T17:38:05.007Z,4.90
2018-09-04T17:40:33.581Z,4.93
2018-09-04T17:43:02.143Z,5.43
2018-09-04T17:45:30.940Z,5.30
2018-09-04T17:47:59.514Z,5.20
2018-09-04T17:50:28.031Z,6.57
2018-09-04T17:52:56.584Z,5.13
2018-09-04T17:55:25.145Z,4.90
2018-09-04T17:57:53.714Z,5.07
2018-09-04T18:00:22.295Z,4.70
2018-09-04T18:02:50.878Z,4.40
2018-09-04T18:05:19.417Z,5.67
2018-09-04T18:07:47.992Z,8.83
2018-09-04T18:10:16.554Z,6.47
2018-09-04T18:12:45.124Z,5.43
2018-09-04T18:15:13.661Z,4.70
2018-09-04T18:17:42.246Z,5.07
2018-09-04T18:20:10.841Z,4.90
2018-09-04T18:22:39.416Z,5.17
2018-09-04T18:25:08.024Z,5.10
2018-09-04T18:27:36.573Z,5.13
2018-09-04T18:30:05.161Z,5.20
2018-09-04T18:32:33.739Z,5.10
2018-09-04T18:35:02.247Z,4.90
2018-09-04T18:37:31.192Z,4.83
2018-09-04T18:39:59.729Z,7.43
2018-09-04T18:42:28.291Z,10.20
2018-09-04T18:44:56.828Z,7.83
2018-09-04T18:47:25.393Z,5.60
2018-09-04T18:49:53.944Z,4.97
2018-09-04T18:52:22.563Z,5.50
2018-09-04T18:54:51.103Z,5.10
2018-09-04T18:57:19.668Z,6.03
2018-09-04T18:59:48.194Z,14.00
2018-09-04T19:02:16.753Z,6.53
2018-09-04T19:04:45.448Z,5.37
2018-09-04T19:07:14.072Z,5.10
2018-09-04T19:09:42.648Z,5.67
2018-09-04T19:12:17.797Z,4.93
2018-09-04T19:14:46.443Z,5.07
2018-09-04T19:17:15.018Z,5.40
2018-09-04T19:19:43.591Z,5.00
2018-09-04T19:22:12.184Z,5.23
2018-09-04T19:24:40.744Z,5.77
2018-09-04T19:27:09.378Z,5.43
2018-09-04T19:29:37.948Z,5.47
2018-09-04T19:32:06.564Z,5.57
2018-09-04T19:34:35.097Z,5.33
2018-09-04T19:37:03.721Z,5.37
2018-09-04T19:39:32.261Z,5.20
2018-09-04T19:42:00.845Z,5.70
2018-09-04T19:44:29.375Z,5.10
2018-09-04T19:46:57.968Z,6.17
2018-09-04T19:49:26.564Z,5.33
2018-09-04T19:51:55.104Z,5.43
2018-09-04T19:54:23.733Z,5.90
2018-09-04T19:56:52.293Z,5.80
2018-09-04T19:59:20.888Z,6.63
2018-09-04T20:01:49.490Z,8.80
2018-09-04T20:04:18.049Z,5.60
2018-09-04T20:06:46.640Z,5.80
2018-09-04T20:09:15.292Z,5.80
2018-09-04T20:11:43.840Z,5.23
2018-09-04T20:14:12.442Z,5.27
2018-09-04T20:16:40.980Z,5.20
2018-09-04T20:19:09.544Z,5.53
2018-09-04T20:21:38.108Z,5.23
2018-09-04T20:24:06.319Z,5.53
2018-09-04T20:26:34.846Z,5.07
2018-09-04T20:29:03.461Z,5.63
2018-09-04T20:31:32.092Z,5.30
2018-09-04T20:34:00.689Z,5.83
2018-09-04T20:36:29.278Z,5.87
2018-09-04T20:38:57.829Z,5.70
2018-09-04T20:41:26.377Z,5.80
2018-09-04T20:43:55.001Z,4.90
2018-09-04T20:46:23.573Z,8.87
2018-09-04T20:48:52.132Z,7.07
2018-09-04T20:51:20.689Z,6.03
2018-09-04T20:53:49.303Z,5.50
2018-09-04T20:56:17.865Z,5.67
2018-09-04T20:58:57.773Z,6.10
2018-09-04T21:01:37.768Z,5.50
2018-09-04T21:04:17.421Z,5.87
2018-09-04T21:06:50.107Z,5.70
2018-09-04T21:09:28.329Z,5.73
2018-09-04T21:11:56.878Z,5.37
2018-09-04T21:14:25.649Z,5.37
2018-09-04T21:16:54.217Z,5.27
2018-09-04T21:19:22.817Z,6.30
2018-09-04T21:21:51.382Z,5.87
2018-09-04T21:24:19.944Z,5.47
2018-09-04T21:26:48.500Z,6.07
2018-09-04T21:29:17.084Z,6.20
2018-09-04T21:31:45.636Z,6.13
2018-09-04T21:34:14.215Z,6.20
2018-09-04T21:36:42.752Z,5.73
2018-09-04T21:39:11.387Z,5.27
2018-09-04T21:41:39.905Z,6.03
2018-09-04T21:44:08.538Z,5.63
2018-09-04T21:46:37.063Z,5.33
2018-09-04T21:49:05.656Z,5.67
2018-09-04T21:51:34.211Z,5.70
2018-09-04T21:54:02.765Z,5.73
2018-09-04T21:56:31.316Z,6.07
2018-09-04T21:58:59.883Z,6.00
2018-09-04T22:01:28.485Z,6.07
2018-09-04T22:03:57.012Z,6.23
2018-09-04T22:06:25.580Z,5.63
2018-09-04T22:08:54.168Z,5.93
2018-09-04T22:11:22.752Z,6.13
2018-09-04T22:13:51.256Z,6.00
2018-09-04T22:16:19.841Z,5.80
2018-09-04T22:18:48.465Z,5.80
2018-09-04T22:21:17.023Z,6.17
2018-09-04T22:23:48.405Z,6.17
2018-09-04T22:26:17.034Z,6.00
2018-09-04T22:28:45.600Z,6.00
2018-09-04T22:31:14.189Z,5.80
2018-09-04T22:33:42.709Z,6.40
2018-09-04T22:36:11.279Z,6.23
2018-09-04T22:38:39.860Z,6.83
2018-09-04T22:41:08.460Z,5.97
2018-09-04T22:43:37.481Z,6.13
2018-09-04T22:46:06.227Z,5.73
2018-09-04T22:48:34.792Z,11.40
2018-09-04T22:51:08.553Z,6.47
2018-09-04T22:53:37.096Z,6.10
2018-09-04T22:56:05.681Z,5.93
2018-09-04T22:58:34.234Z,5.60
2018-09-04T23:01:02.780Z,5.83
2018-09-04T23:03:31.288Z,7.03
2018-09-04T23:05:59.840Z,6.47
2018-09-04T23:08:28.394Z,5.97
2018-09-04T23:10:56.985Z,6.23
2018-09-04T23:13:25.557Z,6.57
2018-09-04T23:15:54.080Z,6.17
2018-09-04T23:18:22.615Z,6.23
2018-09-04T23:20:51.179Z,5.30
2018-09-04T23:23:19.791Z,6.07
2018-09-04T23:25:48.344Z,6.30
2018-09-04T23:28:16.932Z,6.30
2018-09-04T23:30:45.488Z,6.13
2018-09-04T23:33:14.037Z,5.67
2018-09-04T23:35:42.618Z,6.37
2018-09-04T23:38:11.181Z,6.40
2018-09-04T23:40:39.744Z,5.93
2018-09-04T23:43:08.279Z,6.33
2018-09-04T23:45:36.836Z,6.30
2018-09-04T23:48:05.435Z,5.80
2018-09-04T23:50:34.689Z,6.00
2018-09-04T23:53:03.306Z,6.10
2018-09-04T23:55:31.889Z,5.93
2018-09-04T23:58:00.441Z,6.27
